Time;durP1;ratioP1;P1;durP2;ratioP2;P2;SDS_P1;SDS_P2;PMS_P1;PMS_P2;Temp;Humidity;BMP_temperature;BMP_pressure;BME280_temperature;BME280_humidity;BME280_pressure;Samples;Min_cycle;Max_cycle;Signal;HPM_P1;HPM_P2
2023/09/07 00:01:37;;;;;;;;;;;;;;;;;;4965168;28;92197;-67
2023/09/07 00:04:03;;;;;;;;;;;;;;;;;;4965068;28;92543;-62
2023/09/07 00:06:28;;;;;;;;;;;;;;;;;;4965057;28;93000;-72
2023/09/07 00:08:53;;;;;;;;;;;;;;;;;;4968086;28;93241;-71
2023/09/07 00:11:19;;;;;;;;;;;;;;;;;;4965784;28;92531;-65
2023/09/07 00:13:44;;;;;;;;;;;;;;;;;;4964434;28;93759;-72
2023/09/07 00:16:09;;;;;;;;;;;;;;;;;;4965850;28;93838;-70
2023/09/07 00:18:34;;;;;;;;;;;;;;;;;;4964862;28;94084;-70
2023/09/07 00:21:00;;;;;;;;;;;;;;;;;;4964940;28;93782;-69
2023/09/07 00:23:26;;;;;;;;;;;;;;;;;;4964146;28;94833;-73
2023/09/07 00:25:51;;;;;;;;;;;;;;;;;;4965645;28;92812;-68
2023/09/07 00:28:16;;;;;;;;;;;;;;;;;;4964590;28;92812;-70
2023/09/07 00:30:41;;;;;;;;;;;;;;;;;;4967912;28;93759;-73
2023/09/07 00:33:07;;;;;;;;;;;;;;;;;;4964859;28;92196;-65
2023/09/07 00:35:32;;;;;;;;;;;;;;;;;;4965472;28;92490;-68
2023/09/07 00:37:57;;;;;;;;;;;;;;;;;;4964335;28;92803;-64
2023/09/07 00:40:22;;;;;;;;;;;;;;;;;;4964599;28;92501;-67
2023/09/07 00:42:48;;;;;;;;;;;;;;;;;;4964084;28;93139;-69
2023/09/07 00:45:13;;;;;;;;;;;;;;;;;;4964637;28;92727;-68
2023/09/07 00:47:38;;;;;;;;;;;;;;;;;;4964454;28;92363;-67
2023/09/07 00:50:07;;;;;;;;;;;;;;;;;;4964398;28;92758;-67
2023/09/07 00:52:32;;;;;;;;;;;;;;;;;;4967380;28;92858;-69
2023/09/07 00:54:58;;;;;;;;;;;;;;;;;;4963533;28;92558;-73
2023/09/07 00:57:24;;;;;;;;;;;;;;;;;;4964046;28;92736;-68
2023/09/07 00:59:49;;;;;;;;;;;;;;;;;;4965069;28;91853;-72
2023/09/07 01:02:14;;;;;;;;;;;;;;;;;;4965353;28;92411;-71
2023/09/07 01:04:42;;;;;;;;;;;;;;;;;;4964666;28;92772;-64
2023/09/07 01:07:28;;;;;;;;;;;;;;;;;;4962912;28;93686;-63
2023/09/07 01:09:56;;;;;;;;;;;;;;;;;;4964469;28;94322;-72
2023/09/07 01:12:21;;;;;;;;;;;;;;;;;;4964858;28;93658;-68
2023/09/07 01:14:47;;;;;;;;;;;;;;;;;;4967787;28;92818;-66
2023/09/07 01:17:13;;;;;;;;;;;;;;;;;;4965320;28;92674;-67
2023/09/07 01:19:39;;;;;;;;;;;;;;;;;;4964947;28;92621;-66
2023/09/07 01:22:05;;;;;;;;;;;;;;;;;;4965934;28;92777;-62
2023/09/07 01:24:31;;;;;;;;;;;;;;;;;;4965148;28;92132;-63
2023/09/07 01:26:59;;;;;;;;;;;;;;;;;;4964122;28;92777;-63
2023/09/07 01:29:24;;;;;;;;;;;;;;;;;;4964761;28;92993;-63
2023/09/07 01:31:49;;;;;;;;;;;;;;;;;;4965846;28;93655;-62
2023/09/07 01:34:15;;;;;;;;;;;;;;;;;;4964461;28;92784;-63
2023/09/07 01:36:40;;;;;;;;;;;;;;;;;;4966702;28;92714;-65
2023/09/07 01:39:06;;;;;;;;;;;;;;;;;;4963477;28;92712;-63
2023/09/07 01:41:31;;;;;;;;;;;;;;;;;;4979897;28;94411;-72
2023/09/07 01:43:57;;;;;;;;;;;;;;;;;;4982618;28;93774;-65
2023/09/07 01:46:22;;;;;;;;;;;;;;;;;;4983577;28;93485;-62
2023/09/07 01:48:47;;;;;;;;;;;;;;;;;;4984179;28;93100;-66
2023/09/07 01:51:12;;;;;;;;;;;;;;;;;;4983873;28;93244;-63
2023/09/07 01:53:38;;;;;;;;;;;;;;;;;;4983369;28;92705;-63
2023/09/07 01:56:03;;;;;;;;;;;;;;;;;;4985662;28;93720;-64
2023/09/07 01:58:28;;;;;;;;;;;;;;;;;;4981480;28;92579;-67
2023/09/07 02:00:57;;;;;;;;;;;;;;;;;;4964055;28;92725;-71
2023/09/07 02:03:22;;;;;;;;;;;;;;;;;;4963669;28;93463;-72
2023/09/07 02:05:48;;;;;;;;;;;;;;;;;;4963644;28;93366;-69
2023/09/07 02:08:13;;;;;;;;;;;;;;;;;;4973650;28;92487;-73
2023/09/07 02:10:39;;;;;;;;;;;;;;;;;;4982439;28;94409;-71
2023/09/07 02:13:04;;;;;;;;;;;;;;;;;;4974939;28;91509;-64
2023/09/07 02:15:29;;;;;;;;;;;;;;;;;;4963573;28;92634;-62
2023/09/07 02:17:55;;;;;;;;;;;;;;;;;;4966306;28;93724;-63
2023/09/07 02:20:20;;;;;;;;;;;;;;;;;;4963093;28;93191;-70
2023/09/07 02:22:45;;;;;;;;;;;;;;;;;;4964045;28;92772;-73
2023/09/07 02:25:11;;;;;;;;;;;;;;;;;;4972835;28;93001;-64
2023/09/07 02:27:36;;;;;;;;;;;;;;;;;;4982858;28;92429;-69
2023/09/07 02:30:02;;;;;;;;;;;;;;;;;;4982788;28;92748;-68
2023/09/07 02:32:27;;;;;;;;;;;;;;;;;;4982769;28;92825;-72
2023/09/07 02:34:52;;;;;;;;;;;;;;;;;;4983155;28;93496;-66
2023/09/07 02:37:18;;;;;;;;;;;;;;;;;;4984060;28;92045;-73
2023/09/07 02:39:43;;;;;;;;;;;;;;;;;;4985759;28;92321;-66
2023/09/07 02:42:08;;;;;;;;;;;;;;;;;;4981498;28;93921;-72
2023/09/07 02:44:34;;;;;;;;;;;;;;;;;;4982648;28;94267;-71
2023/09/07 02:46:59;;;;;;;;;;;;;;;;;;4983371;28;93942;-72
2023/09/07 02:49:24;;;;;;;;;;;;;;;;;;4982605;28;93175;-63
2023/09/07 02:51:49;;;;;;;;;;;;;;;;;;4981679;28;93379;-69
2023/09/07 02:54:15;;;;;;;;;;;;;;;;;;4982852;28;92899;-69
2023/09/07 02:56:40;;;;;;;;;;;;;;;;;;4982653;28;92706;-66
2023/09/07 02:59:05;;;;;;;;;;;;;;;;;;4983056;28;92545;-66
2023/09/07 03:01:30;;;;;;;;;;;;;;;;;;4986102;28;91505;-68
2023/09/07 03:03:56;;;;;;;;;;;;;;;;;;4983007;28;92721;-71
2023/09/07 03:06:21;;;;;;;;;;;;;;;;;;4982993;28;93193;-65
2023/09/07 03:08:46;;;;;;;;;;;;;;;;;;4982504;28;93750;-70
2023/09/07 03:11:11;;;;;;;;;;;;;;;;;;4983129;28;92760;-68
2023/09/07 03:13:37;;;;;;;;;;;;;;;;;;4982939;28;92604;-66
2023/09/07 03:16:03;;;;;;;;;;;;;;;;;;4983190;28;92092;-67
2023/09/07 03:18:28;;;;;;;;;;;;;;;;;;4984535;28;92205;-69
2023/09/07 03:20:55;;;;;;;;;;;;;;;;;;4986670;28;93441;-72
2023/09/07 03:23:21;;;;;;;;;;;;;;;;;;4989771;28;92571;-73
2023/09/07 03:25:46;;;;;;;;;;;;;;;;;;4987374;28;92581;-66
2023/09/07 03:28:11;;;;;;;;;;;;;;;;;;4986024;28;92741;-63
2023/09/07 03:30:36;;;;;;;;;;;;;;;;;;4985748;28;92667;-63
2023/09/07 03:33:03;;;;;;;;;;;;;;;;;;4972161;28;93783;-63
2023/09/07 03:35:28;;;;;;;;;;;;;;;;;;4966016;28;94017;-63
2023/09/07 03:37:54;;;;;;;;;;;;;;;;;;4965897;28;92391;-64
2023/09/07 03:40:20;;;;;;;;;;;;;;;;;;4975901;28;92754;-65
2023/09/07 03:42:46;;;;;;;;;;;;;;;;;;4985872;28;93158;-63
2023/09/07 03:45:11;;;;;;;;;;;;;;;;;;4988517;28;92425;-64
2023/09/07 03:47:37;;;;;;;;;;;;;;;;;;4985089;28;93207;-62
2023/09/07 03:50:03;;;;;;;;;;;;;;;;;;4986713;28;91887;-62
2023/09/07 03:52:28;;;;;;;;;;;;;;;;;;4986216;28;92762;-66
2023/09/07 03:54:53;;;;;;;;;;;;;;;;;;4985767;28;92819;-70
2023/09/07 03:57:19;;;;;;;;;;;;;;;;;;4984010;28;93377;-70
2023/09/07 03:59:44;;;;;;;;;;;;;;;;;;4985739;28;94502;-64
2023/09/07 04:02:10;;;;;;;;;;;;;;;;;;4985870;28;92730;-72
2023/09/07 04:04:35;;;;;;;;;;;;;;;;;;4988613;28;92345;-72
2023/09/07 04:07:00;;;;;;;;;;;;;;;;;;4985350;28;92715;-70
2023/09/07 04:09:25;;;;;;;;;;;;;;;;;;4985260;28;92609;-68
2023/09/07 04:11:50;;;;;;;;;;;;;;;;;;4985242;28;92552;-66
2023/09/07 04:14:16;;;;;;;;;;;;;;;;;;4985809;28;92867;-67
2023/09/07 04:16:41;;;;;;;;;;;;;;;;;;4985078;28;92747;-74
2023/09/07 04:19:07;;;;;;;;;;;;;;;;;;4984903;28;93445;-66
2023/09/07 04:21:32;;;;;;;;;;;;;;;;;;4984956;28;93614;-69
2023/09/07 04:23:57;;;;;;;;;;;;;;;;;;4985648;28;92233;-68
2023/09/07 04:26:22;;;;;;;;;;;;;;;;;;4988584;28;92278;-64
2023/09/07 04:28:47;;;;;;;;;;;;;;;;;;4985234;28;92227;-68
2023/09/07 04:31:13;;;;;;;;;;;;;;;;;;4984707;28;92531;-66
2023/09/07 04:33:38;;;;;;;;;;;;;;;;;;4984584;28;92905;-65
2023/09/07 04:36:10;;;;;;;;;;;;;;;;;;4985593;28;92602;-65
2023/09/07 04:38:36;;;;;;;;;;;;;;;;;;4985508;28;92660;-72
2023/09/07 04:41:07;;;;;;;;;;;;;;;;;;4984295;28;92864;-68
2023/09/07 04:43:33;;;;;;;;;;;;;;;;;;4984821;28;92552;-67
2023/09/07 04:45:58;;;;;;;;;;;;;;;;;;4969002;28;93312;-72
2023/09/07 04:48:23;;;;;;;;;;;;;;;;;;4968409;28;92790;-73
2023/09/07 04:50:48;;;;;;;;;;;;;;;;;;4964337;28;92618;-67
2023/09/07 04:53:13;;;;;;;;;;;;;;;;;;4964459;28;92749;-67
2023/09/07 04:55:39;;;;;;;;;;;;;;;;;;4965104;28;92714;-63
2023/09/07 04:58:04;;;;;;;;;;;;;;;;;;4965477;28;92716;-63
2023/09/07 05:00:29;;;;;;;;;;;;;;;;;;4966857;28;92959;-62
2023/09/07 05:02:54;;;;;;;;;;;;;;;;;;4967291;28;92175;-68
2023/09/07 05:05:20;;;;;;;;;;;;;;;;;;4962808;28;93357;-64
2023/09/07 05:07:45;;;;;;;;;;;;;;;;;;4963057;28;93672;-65
2023/09/07 05:10:12;;;;;;;;;;;;;;;;;;4966045;28;94452;-69
2023/09/07 05:12:37;;;;;;;;;;;;;;;;;;4963063;28;93323;-65
2023/09/07 05:15:04;;;;;;;;;;;;;;;;;;4983691;28;92371;-67
2023/09/07 05:17:29;;;;;;;;;;;;;;;;;;4971509;28;92525;-65
2023/09/07 05:19:55;;;;;;;;;;;;;;;;;;4971431;28;94070;-64
2023/09/07 05:22:22;;;;;;;;;;;;;;;;;;4973806;28;93071;-70
2023/09/07 05:24:47;;;;;;;;;;;;;;;;;;4974432;28;93891;-71
2023/09/07 05:27:12;;;;;;;;;;;;;;;;;;4973439;28;93181;-69
2023/09/07 05:29:38;;;;;;;;;;;;;;;;;;4971741;28;92496;-71
2023/09/07 05:32:03;;;;;;;;;;;;;;;;;;4978999;28;92816;-71
2023/09/07 05:34:29;;;;;;;;;;;;;;;;;;4974953;28;93822;-74
2023/09/07 05:36:54;;;;;;;;;;;;;;;;;;4978396;28;95060;-77
2023/09/07 05:39:20;;;;;;;;;;;;;;;;;;4970437;28;92609;-63
2023/09/07 05:41:45;;;;;;;;;;;;;;;;;;4974185;28;92615;-75
2023/09/07 05:44:10;;;;;;;;;;;;;;;;;;4974623;28;93860;-62
2023/09/07 05:46:35;;;;;;;;;;;;;;;;;;4969265;28;93568;-64
2023/09/07 05:49:01;;;;;;;;;;;;;;;;;;4971542;28;93677;-67
2023/09/07 05:51:26;;;;;;;;;;;;;;;;;;4975868;28;92617;-74
2023/09/07 05:53:51;;;;;;;;;;;;;;;;;;4970021;28;92660;-62
2023/09/07 05:56:16;;;;;;;;;;;;;;;;;;4968999;28;92715;-63
2023/09/07 05:58:41;;;;;;;;;;;;;;;;;;4968991;28;94788;-64
2023/09/07 06:01:07;;;;;;;;;;;;;;;;;;4967697;28;92927;-63
2023/09/07 06:03:33;;;;;;;;;;;;;;;;;;4976123;28;93122;-64
2023/09/07 06:05:58;;;;;;;;;;;;;;;;;;4973858;28;93747;-70
2023/09/07 06:08:23;;;;;;;;;;;;;;;;;;4973726;28;93120;-62
2023/09/07 06:10:49;;;;;;;;;;;;;;;;;;4972505;28;92768;-62
2023/09/07 06:13:14;;;;;;;;;;;;;;;;;;4973632;28;93169;-66
2023/09/07 06:15:40;;;;;;;;;;;;;;;;;;4973403;28;93593;-66
2023/09/07 06:18:05;;;;;;;;;;;;;;;;;;4975545;28;93722;-68
2023/09/07 06:20:30;;;;;;;;;;;;;;;;;;4973339;28;93558;-62
2023/09/07 06:22:55;;;;;;;;;;;;;;;;;;4972016;28;94627;-70
2023/09/07 06:25:22;;;;;;;;;;;;;;;;;;4972850;28;93012;-62
2023/09/07 06:27:47;;;;;;;;;;;;;;;;;;4973115;28;92655;-70
2023/09/07 06:30:12;;;;;;;;;;;;;;;;;;4967239;28;93489;-63
2023/09/07 06:32:38;;;;;;;;;;;;;;;;;;4971580;28;93586;-65
2023/09/07 06:35:03;;;;;;;;;;;;;;;;;;4974946;28;92331;-64
2023/09/07 06:37:29;;;;;;;;;;;;;;;;;;4972949;28;93283;-64
2023/09/07 06:39:54;;;;;;;;;;;;;;;;;;4968881;28;93157;-65
2023/09/07 06:42:20;;;;;;;;;;;;;;;;;;4975419;28;92411;-64
2023/09/07 06:44:45;;;;;;;;;;;;;;;;;;4970340;28;94273;-72
2023/09/07 06:47:10;;;;;;;;;;;;;;;;;;4973120;28;94553;-67
2023/09/07 06:49:37;;;;;;;;;;;;;;;;;;4975411;28;93279;-65
2023/09/07 06:52:03;;;;;;;;;;;;;;;;;;4972039;28;93783;-72
2023/09/07 06:54:28;;;;;;;;;;;;;;;;;;4971235;28;93671;-70
2023/09/07 06:56:53;;;;;;;;;;;;;;;;;;4974343;28;92603;-66
2023/09/07 06:59:18;;;;;;;;;;;;;;;;;;4971602;28;93099;-65
2023/09/07 07:01:44;;;;;;;;;;;;;;;;;;4976199;28;92612;-67
2023/09/07 07:04:09;;;;;;;;;;;;;;;;;;4978296;28;92093;-71
2023/09/07 07:06:34;;;;;;;;;;;;;;;;;;4972402;28;92839;-73
2023/09/07 07:09:00;;;;;;;;;;;;;;;;;;4972310;28;93222;-66
2023/09/07 07:11:25;;;;;;;;;;;;;;;;;;4972555;28;93724;-77
2023/09/07 07:13:50;;;;;;;;;;;;;;;;;;4975005;28;92950;-69
2023/09/07 07:16:16;;;;;;;;;;;;;;;;;;4972989;28;92564;-68
2023/09/07 07:18:41;;;;;;;;;;;;;;;;;;4969563;28;92928;-70
2023/09/07 07:21:08;;;;;;;;;;;;;;;;;;4968761;28;92949;-68
2023/09/07 07:23:34;;;;;;;;;;;;;;;;;;4975493;28;93842;-68
2023/09/07 07:25:59;;;;;;;;;;;;;;;;;;4975744;28;92714;-67
2023/09/07 07:28:24;;;;;;;;;;;;;;;;;;4967755;28;92463;-69
2023/09/07 07:30:52;;;;;;;;;;;;;;;;;;4973930;28;93333;-71
2023/09/07 07:33:17;;;;;;;;;;;;;;;;;;4974708;28;92645;-68
2023/09/07 07:35:42;;;;;;;;;;;;;;;;;;4974270;28;93641;-67
2023/09/07 07:38:08;;;;;;;;;;;;;;;;;;4972237;28;93032;-68
2023/09/07 07:40:33;;;;;;;;;;;;;;;;;;4978160;28;92554;-69
2023/09/07 07:42:58;;;;;;;;;;;;;;;;;;4967314;28;92909;-68
2023/09/07 07:45:23;;;;;;;;;;;;;;;;;;4974213;28;92694;-73
2023/09/07 07:47:49;;;;;;;;;;;;;;;;;;4967640;28;93212;-68
2023/09/07 07:50:16;;;;;;;;;;;;;;;;;;4969083;28;93772;-76
2023/09/07 07:52:41;;;;;;;;;;;;;;;;;;4972974;28;92014;-67
2023/09/07 07:55:07;;;;;;;;;;;;;;;;;;4968727;28;92904;-69
2023/09/07 07:57:32;;;;;;;;;;;;;;;;;;4977119;28;93569;-70
2023/09/07 07:59:57;;;;;;;;;;;;;;;;;;4973336;28;93911;-68
2023/09/07 08:02:23;;;;;;;;;;;;;;;;;;4976065;28;92625;-68
2023/09/07 08:04:48;;;;;;;;;;;;;;;;;;4975964;28;92551;-71
2023/09/07 08:07:13;;;;;;;;;;;;;;;;;;4975312;28;92631;-73
2023/09/07 08:09:39;;;;;;;;;;;;;;;;;;4970565;28;92695;-73
2023/09/07 08:12:05;;;;;;;;;;;;;;;;;;4974132;28;92737;-69
2023/09/07 08:14:30;;;;;;;;;;;;;;;;;;4976551;28;93389;-69
2023/09/07 08:16:56;;;;;;;;;;;;;;;;;;4978412;28;94102;-68
2023/09/07 08:19:21;;;;;;;;;;;;;;;;;;4982138;28;92176;-65
2023/09/07 08:21:47;;;;;;;;;;;;;;;;;;4982358;28;93233;-67
2023/09/07 08:24:12;;;;;;;;;;;;;;;;;;4974583;28;94278;-68
2023/09/07 08:26:37;;;;;;;;;;;;;;;;;;4973772;28;93233;-67
2023/09/07 08:29:06;;;;;;;;;;;;;;;;;;4975393;28;92694;-66
2023/09/07 08:31:33;;;;;;;;;;;;;;;;;;4973418;28;93065;-65
2023/09/07 08:33:59;;;;;;;;;;;;;;;;;;4968444;28;93562;-65
2023/09/07 08:36:27;;;;;;;;;;;;;;;;;;4973252;28;93354;-65
2023/09/07 08:38:53;;;;;;;;;;;;;;;;;;4973492;28;92884;-65
2023/09/07 08:41:20;;;;;;;;;;;;;;;;;;4977817;28;93267;-65
2023/09/07 08:43:46;;;;;;;;;;;;;;;;;;4985321;28;93021;-68
2023/09/07 08:46:17;;;;;;;;;;;;;;;;;;4977327;28;92665;-67
2023/09/07 08:48:43;;;;;;;;;;;;;;;;;;4972590;28;94246;-66
2023/09/07 08:51:11;;;;;;;;;;;;;;;;;;4973685;28;92900;-65
2023/09/07 08:53:37;;;;;;;;;;;;;;;;;;4974539;28;93322;-65
2023/09/07 08:56:03;;;;;;;;;;;;;;;;;;4974819;28;92607;-66
2023/09/07 08:58:28;;;;;;;;;;;;;;;;;;4973828;28;92507;-75
2023/09/07 09:00:56;;;;;;;;;;;;;;;;;;4975410;28;92693;-72
2023/09/07 09:03:22;;;;;;;;;;;;;;;;;;4975168;28;92757;-73
2023/09/07 09:05:50;;;;;;;;;;;;;;;;;;4981240;28;91605;-71
2023/09/07 09:08:20;;;;;;;;;;;;;;;;;;4975738;28;93105;-71
2023/09/07 09:10:45;;;;;;;;;;;;;;;;;;4974600;28;93966;-70
2023/09/07 09:13:11;;;;;;;;;;;;;;;;;;4970606;28;93593;-71
2023/09/07 09:15:36;;;;;;;;;;;;;;;;;;4972394;28;93151;-71
2023/09/07 09:18:12;;;;;;;;;;;;;;;;;;4972592;28;94701;-70
2023/09/07 09:20:37;;;;;;;;;;;;;;;;;;4975216;28;93634;-71
2023/09/07 09:23:04;;;;;;;;;;;;;;;;;;4977838;28;92902;-71
2023/09/07 09:25:31;;;;;;;;;;;;;;;;;;4973604;28;92436;-72
2023/09/07 09:27:56;;;;;;;;;;;;;;;;;;4980471;28;92810;-71
2023/09/07 09:30:21;;;;;;;;;;;;;;;;;;4976824;28;92849;-71
2023/09/07 09:32:48;;;;;;;;;;;;;;;;;;4974688;28;92850;-66
2023/09/07 09:35:16;;;;;;;;;;;;;;;;;;4968221;28;94576;-65
2023/09/07 09:37:48;;;;;;;;;;;;;;;;;;4974436;28;94163;-67
2023/09/07 09:40:14;;;;;;;;;;;;;;;;;;4973723;28;94775;-65
2023/09/07 09:42:41;;;;;;;;;;;;;;;;;;4972732;28;93938;-66
2023/09/07 09:45:07;;;;;;;;;;;;;;;;;;4972070;28;92617;-69
2023/09/07 09:47:33;;;;;;;;;;;;;;;;;;4971669;28;93625;-71
2023/09/07 09:50:01;;;;;;;;;;;;;;;;;;4974943;28;93893;-66
2023/09/07 09:52:27;;;;;;;;;;;;;;;;;;4976000;28;92525;-71
2023/09/07 09:54:52;;;;;;;;;;;;;;;;;;4978413;28;92433;-68
2023/09/07 09:57:17;;;;;;;;;;;;;;;;;;4974721;28;93944;-70
2023/09/07 09:59:44;;;;;;;;;;;;;;;;;;4972185;28;93638;-70
2023/09/07 10:02:10;;;;;;;;;;;;;;;;;;4974566;28;94839;-71
2023/09/07 10:04:35;;;;;;;;;;;;;;;;;;4981128;28;92633;-70
2023/09/07 10:07:01;;;;;;;;;;;;;;;;;;4975146;28;95229;-73
2023/09/07 10:09:31;;;;;;;;;;;;;;;;;;4977618;28;93893;-70
2023/09/07 10:11:59;;;;;;;;;;;;;;;;;;4974558;28;93162;-71
2023/09/07 10:14:24;;;;;;;;;;;;;;;;;;4969308;28;92696;-73
2023/09/07 10:16:52;;;;;;;;;;;;;;;;;;4977444;28;93245;-71
2023/09/07 10:19:19;;;;;;;;;;;;;;;;;;4977076;28;93561;-74
2023/09/07 10:21:44;;;;;;;;;;;;;;;;;;4971584;28;92721;-72
2023/09/07 10:24:10;;;;;;;;;;;;;;;;;;4971774;28;92453;-75
2023/09/07 10:26:35;;;;;;;;;;;;;;;;;;4971903;28;93160;-73
2023/09/07 10:29:03;;;;;;;;;;;;;;;;;;4973344;28;92806;-68
2023/09/07 10:31:30;;;;;;;;;;;;;;;;;;4971592;28;92426;-73
2023/09/07 10:33:55;;;;;;;;;;;;;;;;;;4980224;28;93116;-72
2023/09/07 10:36:22;;;;;;;;;;;;;;;;;;4975751;28;92405;-73
2023/09/07 10:38:47;;;;;;;;;;;;;;;;;;4972237;28;92837;-80
2023/09/07 10:41:13;;;;;;;;;;;;;;;;;;4974347;28;92840;-67
2023/09/07 10:43:46;;;;;;;;;;;;;;;;;;4970646;28;92329;-66
2023/09/07 10:46:11;;;;;;;;;;;;;;;;;;4975237;28;93523;-68
2023/09/07 10:48:37;;;;;;;;;;;;;;;;;;4976407;28;94285;-67
2023/09/07 10:51:02;;;;;;;;;;;;;;;;;;4972378;28;94182;-71
2023/09/07 10:53:31;;;;;;;;;;;;;;;;;;4980268;28;94136;-67
2023/09/07 10:55:58;;;;;;;;;;;;;;;;;;4973656;28;92423;-67
2023/09/07 10:58:24;;;;;;;;;;;;;;;;;;4976429;28;93648;-69
2023/09/07 11:00:52;;;;;;;;;;;;;;;;;;4975348;28;92734;-71
2023/09/07 11:03:17;;;;;;;;;;;;;;;;;;4973157;28;93009;-73
2023/09/07 11:05:42;;;;;;;;;;;;;;;;;;4969306;28;93578;-71
2023/09/07 11:08:08;;;;;;;;;;;;;;;;;;4971883;28;92100;-77
2023/09/07 11:10:34;;;;;;;;;;;;;;;;;;4977764;28;92291;-69
2023/09/07 11:13:03;;;;;;;;;;;;;;;;;;4973110;28;92565;-77
2023/09/07 11:15:29;;;;;;;;;;;;;;;;;;4981511;28;94777;-76
2023/09/07 11:17:54;;;;;;;;;;;;;;;;;;4973913;28;93217;-69
2023/09/07 11:20:21;;;;;;;;;;;;;;;;;;4965166;28;93457;-68
2023/09/07 11:22:46;;;;;;;;;;;;;;;;;;4972115;28;92577;-71
2023/09/07 11:25:12;;;;;;;;;;;;;;;;;;4978444;28;93019;-67
2023/09/07 11:27:39;;;;;;;;;;;;;;;;;;4975418;28;92757;-68
2023/09/07 11:30:07;;;;;;;;;;;;;;;;;;4975631;28;92703;-71
2023/09/07 11:32:36;;;;;;;;;;;;;;;;;;4976419;28;93398;-66
2023/09/07 11:35:01;;;;;;;;;;;;;;;;;;4975153;28;92807;-68
2023/09/07 11:37:27;;;;;;;;;;;;;;;;;;4979362;28;92768;-68
2023/09/07 11:39:52;;;;;;;;;;;;;;;;;;4980416;28;95613;-70
2023/09/07 11:42:17;;;;;;;;;;;;;;;;;;4976407;28;93453;-72
2023/09/07 11:44:42;;;;;;;;;;;;;;;;;;4975936;28;93825;-69
2023/09/07 11:47:08;;;;;;;;;;;;;;;;;;4979415;28;92892;-74
2023/09/07 11:49:34;;;;;;;;;;;;;;;;;;4968132;28;92194;-76
2023/09/07 11:51:59;;;;;;;;;;;;;;;;;;4977202;28;92778;-66
2023/09/07 11:54:24;;;;;;;;;;;;;;;;;;4979846;28;92446;-66
2023/09/07 11:56:49;;;;;;;;;;;;;;;;;;4973465;28;91789;-76
2023/09/07 11:59:17;;;;;;;;;;;;;;;;;;4979023;28;92858;-76
2023/09/07 12:01:42;;;;;;;;;;;;;;;;;;4978417;28;93564;-75
2023/09/07 12:04:08;;;;;;;;;;;;;;;;;;4973665;28;94226;-73
2023/09/07 12:06:33;;;;;;;;;;;;;;;;;;4976365;28;92576;-73
2023/09/07 12:09:02;;;;;;;;;;;;;;;;;;4973869;28;93375;-79
2023/09/07 12:11:28;;;;;;;;;;;;;;;;;;4978481;28;93482;-75
2023/09/07 12:13:53;;;;;;;;;;;;;;;;;;4975848;28;93941;-65
2023/09/07 12:16:18;;;;;;;;;;;;;;;;;;4973781;28;92431;-74
2023/09/07 12:18:43;;;;;;;;;;;;;;;;;;4973495;28;92755;-76
2023/09/07 12:21:08;;;;;;;;;;;;;;;;;;4978535;28;91837;-75
2023/09/07 12:23:34;;;;;;;;;;;;;;;;;;4978245;28;92823;-70
2023/09/07 12:25:59;;;;;;;;;;;;;;;;;;4977816;28;93223;-79
2023/09/07 12:28:24;;;;;;;;;;;;;;;;;;4972702;28;94039;-76
2023/09/07 12:30:50;;;;;;;;;;;;;;;;;;4973130;28;93201;-72
2023/09/07 12:33:15;;;;;;;;;;;;;;;;;;4971943;28;92926;-72
2023/09/07 12:35:40;;;;;;;;;;;;;;;;;;4969707;28;93317;-78
2023/09/07 12:38:07;;;;;;;;;;;;;;;;;;4975354;28;93016;-75
2023/09/07 12:40:32;;;;;;;;;;;;;;;;;;4975984;28;93501;-83
2023/09/07 12:42:58;;;;;;;;;;;;;;;;;;4978168;28;93188;-81
2023/09/07 12:45:23;;;;;;;;;;;;;;;;;;4970243;28;92030;-71
2023/09/07 12:47:48;;;;;;;;;;;;;;;;;;4975352;28;93205;-64
2023/09/07 12:50:13;;;;;;;;;;;;;;;;;;4970718;28;93774;-66
2023/09/07 12:52:39;;;;;;;;;;;;;;;;;;4973369;28;94162;-76
2023/09/07 12:55:05;;;;;;;;;;;;;;;;;;4968561;28;92309;-66
2023/09/07 12:57:30;;;;;;;;;;;;;;;;;;4971995;28;92920;-65
2023/09/07 12:59:55;;;;;;;;;;;;;;;;;;4973920;28;92699;-64
2023/09/07 13:02:20;;;;;;;;;;;;;;;;;;4976613;28;92238;-64
2023/09/07 13:04:45;;;;;;;;;;;;;;;;;;4974009;28;92929;-64
2023/09/07 13:07:11;;;;;;;;;;;;;;;;;;4975615;28;93328;-68
2023/09/07 13:09:36;;;;;;;;;;;;;;;;;;4975954;28;92680;-64
2023/09/07 13:12:01;;;;;;;;;;;;;;;;;;4974137;28;92759;-81
2023/09/07 13:14:26;;;;;;;;;;;;;;;;;;4975537;28;92517;-83
2023/09/07 13:16:51;;;;;;;;;;;;;;;;;;4975029;28;93149;-77
2023/09/07 13:19:17;;;;;;;;;;;;;;;;;;4964846;28;93260;-65
2023/09/07 13:21:42;;;;;;;;;;;;;;;;;;4975010;28;92565;-67
2023/09/07 13:24:07;;;;;;;;;;;;;;;;;;4978485;28;92997;-65
2023/09/07 13:26:32;;;;;;;;;;;;;;;;;;4975060;28;93434;-67
2023/09/07 13:28:58;;;;;;;;;;;;;;;;;;4973693;28;93770;-79
2023/09/07 13:31:23;;;;;;;;;;;;;;;;;;4973489;28;93100;-74
2023/09/07 13:33:48;;;;;;;;;;;;;;;;;;4973359;28;91916;-65
2023/09/07 13:36:14;;;;;;;;;;;;;;;;;;4973068;28;92709;-66
2023/09/07 13:38:41;;;;;;;;;;;;;;;;;;4977747;28;92484;-65
2023/09/07 13:41:06;;;;;;;;;;;;;;;;;;4970888;28;93170;-64
2023/09/07 13:43:31;;;;;;;;;;;;;;;;;;4972379;28;93702;-69
2023/09/07 13:45:56;;;;;;;;;;;;;;;;;;4975196;28;92912;-79
2023/09/07 13:48:22;;;;;;;;;;;;;;;;;;4965166;28;92928;-82
2023/09/07 13:50:48;;;;;;;;;;;;;;;;;;4973336;28;93347;-79
2023/09/07 13:53:13;;;;;;;;;;;;;;;;;;4971590;28;93973;-81
2023/09/07 13:55:41;;;;;;;;;;;;;;;;;;4972526;28;92778;-80
2023/09/07 13:58:07;;;;;;;;;;;;;;;;;;4973747;28;93029;-71
2023/09/07 14:00:32;;;;;;;;;;;;;;;;;;4980665;28;92710;-74
2023/09/07 14:02:57;;;;;;;;;;;;;;;;;;4970776;28;92687;-77
2023/09/07 14:05:22;;;;;;;;;;;;;;;;;;4973408;28;94803;-83
2023/09/07 14:07:47;;;;;;;;;;;;;;;;;;4979423;28;92695;-80
2023/09/07 14:10:13;;;;;;;;;;;;;;;;;;4974223;28;93168;-68
2023/09/07 14:12:38;;;;;;;;;;;;;;;;;;4972882;28;92306;-81
2023/09/07 14:15:04;;;;;;;;;;;;;;;;;;4973061;28;93133;-81
2023/09/07 14:17:29;;;;;;;;;;;;;;;;;;4968951;28;92814;-81
2023/09/07 14:19:54;;;;;;;;;;;;;;;;;;4974970;28;92819;-82
2023/09/07 14:22:20;;;;;;;;;;;;;;;;;;4966784;28;93199;-83
2023/09/07 14:24:45;;;;;;;;;;;;;;;;;;4973856;28;93374;-66
2023/09/07 14:27:10;;;;;;;;;;;;;;;;;;4976277;28;94041;-81
2023/09/07 14:29:35;;;;;;;;;;;;;;;;;;4973365;28;94743;-75
2023/09/07 14:32:01;;;;;;;;;;;;;;;;;;4974628;28;93113;-73
2023/09/07 14:34:26;;;;;;;;;;;;;;;;;;4970188;28;92536;-82
2023/09/07 14:36:51;;;;;;;;;;;;;;;;;;4972698;28;92905;-83
2023/09/07 14:39:23;;;;;;;;;;;;;;;;;;4972813;28;92450;-82
2023/09/07 14:41:48;;;;;;;;;;;;;;;;;;4977924;28;93899;-81
2023/09/07 14:44:14;;;;;;;;;;;;;;;;;;4974096;28;93523;-75
2023/09/07 14:46:39;;;;;;;;;;;;;;;;;;4972715;28;91490;-79
2023/09/07 14:49:04;;;;;;;;;;;;;;;;;;4973472;28;93165;-75
2023/09/07 14:51:29;;;;;;;;;;;;;;;;;;4972571;28;92414;-77
2023/09/07 14:53:55;;;;;;;;;;;;;;;;;;4975653;28;94367;-65
2023/09/07 14:56:20;;;;;;;;;;;;;;;;;;4972246;28;93298;-69
2023/09/07 14:58:45;;;;;;;;;;;;;;;;;;4974771;28;94046;-75
2023/09/07 15:01:11;;;;;;;;;;;;;;;;;;4972697;28;93064;-80
2023/09/07 15:03:40;;;;;;;;;;;;;;;;;;4975315;28;94257;-74
2023/09/07 15:06:05;;;;;;;;;;;;;;;;;;4973611;28;92693;-78
2023/09/07 15:08:30;;;;;;;;;;;;;;;;;;4973092;28;93645;-79
2023/09/07 15:10:55;;;;;;;;;;;;;;;;;;4977493;28;93294;-80
2023/09/07 15:13:21;;;;;;;;;;;;;;;;;;4975100;28;93276;-79
2023/09/07 15:15:46;;;;;;;;;;;;;;;;;;4974999;28;92707;-68
2023/09/07 15:18:11;;;;;;;;;;;;;;;;;;4974140;28;93743;-76
2023/09/07 15:20:37;;;;;;;;;;;;;;;;;;4970968;28;93828;-66
2023/09/07 15:23:03;;;;;;;;;;;;;;;;;;4967597;28;93031;-76
2023/09/07 15:25:28;;;;;;;;;;;;;;;;;;4976251;28;93082;-71
2023/09/07 15:27:54;;;;;;;;;;;;;;;;;;4981303;28;93413;-68
2023/09/07 15:30:19;;;;;;;;;;;;;;;;;;4974758;28;92742;-64
2023/09/07 15:32:44;;;;;;;;;;;;;;;;;;4982330;28;92365;-65
2023/09/07 15:35:10;;;;;;;;;;;;;;;;;;4976290;28;91802;-67
2023/09/07 15:37:35;;;;;;;;;;;;;;;;;;4972743;28;92730;-69
2023/09/07 15:40:00;;;;;;;;;;;;;;;;;;4974651;28;94070;-66
2023/09/07 15:42:26;;;;;;;;;;;;;;;;;;4973603;28;93886;-66
2023/09/07 15:44:51;;;;;;;;;;;;;;;;;;4974476;28;93020;-65
2023/09/07 15:47:17;;;;;;;;;;;;;;;;;;4971318;28;93421;-68
2023/09/07 15:49:44;;;;;;;;;;;;;;;;;;4974483;28;93679;-75
2023/09/07 15:52:09;;;;;;;;;;;;;;;;;;4971089;28;92701;-79
2023/09/07 15:54:35;;;;;;;;;;;;;;;;;;4973903;28;93474;-77
2023/09/07 15:57:00;;;;;;;;;;;;;;;;;;4974644;28;92443;-74
2023/09/07 15:59:25;;;;;;;;;;;;;;;;;;4971485;28;92742;-78
2023/09/07 16:01:50;;;;;;;;;;;;;;;;;;4970543;28;93132;-75
2023/09/07 16:04:16;;;;;;;;;;;;;;;;;;4976459;28;94083;-66
2023/09/07 16:06:41;;;;;;;;;;;;;;;;;;4973978;28;93814;-74
2023/09/07 16:09:06;;;;;;;;;;;;;;;;;;4973323;28;93311;-67
2023/09/07 16:11:31;;;;;;;;;;;;;;;;;;4972091;28;92649;-69
2023/09/07 16:13:57;;;;;;;;;;;;;;;;;;4976445;28;92701;-75
2023/09/07 16:16:22;;;;;;;;;;;;;;;;;;4972768;28;93708;-76
2023/09/07 16:18:48;;;;;;;;;;;;;;;;;;4966542;28;93591;-79
2023/09/07 16:21:15;;;;;;;;;;;;;;;;;;4966461;28;93218;-78
2023/09/07 16:23:45;;;;;;;;;;;;;;;;;;4967736;28;92301;-75
2023/09/07 16:26:10;;;;;;;;;;;;;;;;;;4976066;28;92238;-77
2023/09/07 16:28:35;;;;;;;;;;;;;;;;;;4973459;28;93110;-79
2023/09/07 16:31:00;;;;;;;;;;;;;;;;;;4976855;28;93697;-77
2023/09/07 16:33:25;;;;;;;;;;;;;;;;;;4980649;28;93959;-72
2023/09/07 16:35:51;;;;;;;;;;;;;;;;;;4980928;28;92752;-69